sensor_id;sensor_type;location;lat;lon;timestamp;temperature;humidity
84389;DHT22;74589;48.846;2.382;2023-12-22T00:01:15;14.50;11.30
84389;DHT22;74589;48.846;2.382;2023-12-22T00:03:43;14.60;11.00
84389;DHT22;74589;48.846;2.382;2023-12-22T00:06:11;14.60;10.50
84389;DHT22;74589;48.846;2.382;2023-12-22T00:08:37;14.60;11.00
84389;DHT22;74589;48.846;2.382;2023-12-22T00:11:03;14.50;11.00
84389;DHT22;74589;48.846;2.382;2023-12-22T00:13:29;14.60;10.60
84389;DHT22;74589;48.846;2.382;2023-12-22T00:15:55;14.60;9.90
84389;DHT22;74589;48.846;2.382;2023-12-22T00:18:21;14.70;9.50
84389;DHT22;74589;48.846;2.382;2023-12-22T00:20:46;14.70;9.00
84389;DHT22;74589;48.846;2.382;2023-12-22T00:23:12;14.70;8.40
84389;DHT22;74589;48.846;2.382;2023-12-22T00:25:38;14.70;8.50
84389;DHT22;74589;48.846;2.382;2023-12-22T00:28:03;14.60;8.60
84389;DHT22;74589;48.846;2.382;2023-12-22T00:30:29;14.50;8.40
84389;DHT22;74589;48.846;2.382;2023-12-22T00:32:55;14.50;8.20
84389;DHT22;74589;48.846;2.382;2023-12-22T00:35:20;14.30;8.70
84389;DHT22;74589;48.846;2.382;2023-12-22T00:37:46;14.40;7.60
84389;DHT22;74589;48.846;2.382;2023-12-22T00:40:12;14.40;7.90
84389;DHT22;74589;48.846;2.382;2023-12-22T00:42:38;14.30;7.80
84389;DHT22;74589;48.846;2.382;2023-12-22T00:45:05;14.20;7.40
84389;DHT22;74589;48.846;2.382;2023-12-22T00:47:30;14.30;6.80
84389;DHT22;74589;48.846;2.382;2023-12-22T00:49:56;14.10;7.60
84389;DHT22;74589;48.846;2.382;2023-12-22T00:52:22;14.10;7.60
84389;DHT22;74589;48.846;2.382;2023-12-22T00:54:48;14.00;8.00
84389;DHT22;74589;48.846;2.382;2023-12-22T00:57:14;14.00;8.30
84389;DHT22;74589;48.846;2.382;2023-12-22T00:59:40;14.00;7.90
84389;DHT22;74589;48.846;2.382;2023-12-22T01:02:16;14.00;7.90
84389;DHT22;74589;48.846;2.382;2023-12-22T01:04:43;14.10;7.30
84389;DHT22;74589;48.846;2.382;2023-12-22T01:07:09;14.20;6.70
84389;DHT22;74589;48.846;2.382;2023-12-22T01:09:35;14.10;7.00
84389;DHT22;74589;48.846;2.382;2023-12-22T01:12:02;14.30;6.50
84389;DHT22;74589;48.846;2.382;2023-12-22T01:14:32;14.30;6.30
84389;DHT22;74589;48.846;2.382;2023-12-22T01:16:57;14.10;7.10
84389;DHT22;74589;48.846;2.382;2023-12-22T01:19:24;14.10;7.20
84389;DHT22;74589;48.846;2.382;2023-12-22T01:21:50;14.10;7.00
84389;DHT22;74589;48.846;2.382;2023-12-22T01:24:16;14.10;7.50
84389;DHT22;74589;48.846;2.382;2023-12-22T01:26:41;14.00;7.50
84389;DHT22;74589;48.846;2.382;2023-12-22T01:29:07;14.00;7.60
84389;DHT22;74589;48.846;2.382;2023-12-22T01:31:32;14.00;7.80
84389;DHT22;74589;48.846;2.382;2023-12-22T01:33:58;14.00;8.20
84389;DHT22;74589;48.846;2.382;2023-12-22T01:36:24;14.10;7.60
84389;DHT22;74589;48.846;2.382;2023-12-22T01:38:50;14.00;8.10
84389;DHT22;74589;48.846;2.382;2023-12-22T01:41:16;14.00;8.30
84389;DHT22;74589;48.846;2.382;2023-12-22T01:43:42;14.00;8.50
84389;DHT22;74589;48.846;2.382;2023-12-22T01:46:07;14.10;8.30
84389;DHT22;74589;48.846;2.382;2023-12-22T01:48:35;14.20;8.30
84389;DHT22;74589;48.846;2.382;2023-12-22T01:51:01;14.10;8.90
84389;DHT22;74589;48.846;2.382;2023-12-22T01:53:28;14.10;9.40
84389;DHT22;74589;48.846;2.382;2023-12-22T01:55:55;14.30;9.30
84389;DHT22;74589;48.846;2.382;2023-12-22T01:58:22;14.10;10.10
84389;DHT22;74589;48.846;2.382;2023-12-22T02:00:48;14.10;10.40
84389;DHT22;74589;48.846;2.382;2023-12-22T02:03:14;13.90;11.30
84389;DHT22;74589;48.846;2.382;2023-12-22T02:05:42;13.90;11.50
84389;DHT22;74589;48.846;2.382;2023-12-22T02:08:09;13.80;12.00
84389;DHT22;74589;48.846;2.382;2023-12-22T02:10:34;13.90;11.90
84389;DHT22;74589;48.846;2.382;2023-12-22T02:13:01;13.90;12.10
84389;DHT22;74589;48.846;2.382;2023-12-22T02:15:27;13.90;12.30
84389;DHT22;74589;48.846;2.382;2023-12-22T02:18:04;13.90;12.30
84389;DHT22;74589;48.846;2.382;2023-12-22T02:20:30;13.90;12.60
84389;DHT22;74589;48.846;2.382;2023-12-22T02:22:57;14.00;12.40
84389;DHT22;74589;48.846;2.382;2023-12-22T02:25:22;14.00;12.50
84389;DHT22;74589;48.846;2.382;2023-12-22T02:27:49;13.90;12.50
84389;DHT22;74589;48.846;2.382;2023-12-22T02:30:32;13.90;12.60
84389;DHT22;74589;48.846;2.382;2023-12-22T02:33:03;13.90;12.50
84389;DHT22;74589;48.846;2.382;2023-12-22T02:35:32;13.90;12.60
84389;DHT22;74589;48.846;2.382;2023-12-22T02:38:00;13.90;12.10
84389;DHT22;74589;48.846;2.382;2023-12-22T02:40:26;13.90;12.30
84389;DHT22;74589;48.846;2.382;2023-12-22T02:42:53;13.90;12.40
84389;DHT22;74589;48.846;2.382;2023-12-22T02:45:19;13.90;12.30
84389;DHT22;74589;48.846;2.382;2023-12-22T02:47:46;13.90;12.40
84389;DHT22;74589;48.846;2.382;2023-12-22T02:50:13;13.80;12.50
84389;DHT22;74589;48.846;2.382;2023-12-22T02:52:39;13.90;12.20
84389;DHT22;74589;48.846;2.382;2023-12-22T02:55:05;13.90;12.30
84389;DHT22;74589;48.846;2.382;2023-12-22T02:57:31;13.80;12.50
84389;DHT22;74589;48.846;2.382;2023-12-22T02:59:57;13.90;12.40
84389;DHT22;74589;48.846;2.382;2023-12-22T03:02:23;14.00;11.40
84389;DHT22;74589;48.846;2.382;2023-12-22T03:04:48;14.10;11.20
84389;DHT22;74589;48.846;2.382;2023-12-22T03:07:14;14.00;11.90
84389;DHT22;74589;48.846;2.382;2023-12-22T03:09:41;14.00;11.90
84389;DHT22;74589;48.846;2.382;2023-12-22T03:12:07;14.00;11.40
84389;DHT22;74589;48.846;2.382;2023-12-22T03:14:33;14.00;11.80
84389;DHT22;74589;48.846;2.382;2023-12-22T03:16:59;14.00;11.30
84389;DHT22;74589;48.846;2.382;2023-12-22T03:19:25;14.00;11.30
84389;DHT22;74589;48.846;2.382;2023-12-22T03:21:51;14.00;11.10
84389;DHT22;74589;48.846;2.382;2023-12-22T03:24:17;14.00;10.90
84389;DHT22;74589;48.846;2.382;2023-12-22T03:26:45;14.00;10.90
84389;DHT22;74589;48.846;2.382;2023-12-22T03:29:10;14.10;10.90
84389;DHT22;74589;48.846;2.382;2023-12-22T03:31:36;14.00;10.80
84389;DHT22;74589;48.846;2.382;2023-12-22T03:34:02;14.20;9.90
84389;DHT22;74589;48.846;2.382;2023-12-22T03:36:27;14.20;10.00
84389;DHT22;74589;48.846;2.382;2023-12-22T03:38:53;14.10;10.40
84389;DHT22;74589;48.846;2.382;2023-12-22T03:41:19;14.30;9.50
84389;DHT22;74589;48.846;2.382;2023-12-22T03:43:44;14.30;9.80
84389;DHT22;74589;48.846;2.382;2023-12-22T03:46:10;14.20;9.80
84389;DHT22;74589;48.846;2.382;2023-12-22T03:48:35;14.20;10.10
84389;DHT22;74589;48.846;2.382;2023-12-22T03:51:01;14.20;10.20
84389;DHT22;74589;48.846;2.382;2023-12-22T03:53:27;14.30;9.80
84389;DHT22;74589;48.846;2.382;2023-12-22T03:55:52;14.40;9.90
84389;DHT22;74589;48.846;2.382;2023-12-22T03:58:18;14.40;9.50
84389;DHT22;74589;48.846;2.382;2023-12-22T04:00:43;14.30;10.20
84389;DHT22;74589;48.846;2.382;2023-12-22T04:03:09;14.30;10.10
84389;DHT22;74589;48.846;2.382;2023-12-22T04:05:35;14.20;10.40
84389;DHT22;74589;48.846;2.382;2023-12-22T04:08:00;14.20;10.60
84389;DHT22;74589;48.846;2.382;2023-12-22T04:10:26;14.20;10.60
84389;DHT22;74589;48.846;2.382;2023-12-22T04:12:51;14.20;11.00
84389;DHT22;74589;48.846;2.382;2023-12-22T04:15:17;14.20;11.00
84389;DHT22;74589;48.846;2.382;2023-12-22T04:17:42;14.30;10.80
84389;DHT22;74589;48.846;2.382;2023-12-22T04:20:08;14.20;11.00
84389;DHT22;74589;48.846;2.382;2023-12-22T04:22:34;14.20;11.40
84389;DHT22;74589;48.846;2.382;2023-12-22T04:24:59;14.40;10.80
84389;DHT22;74589;48.846;2.382;2023-12-22T04:27:25;14.40;10.70
84389;DHT22;74589;48.846;2.382;2023-12-22T04:29:51;14.30;11.00
84389;DHT22;74589;48.846;2.382;2023-12-22T04:32:16;14.30;11.60
84389;DHT22;74589;48.846;2.382;2023-12-22T04:34:42;14.30;13.60
84389;DHT22;74589;48.846;2.382;2023-12-22T04:37:07;14.20;14.90
84389;DHT22;74589;48.846;2.382;2023-12-22T04:39:33;14.10;16.30
84389;DHT22;74589;48.846;2.382;2023-12-22T04:41:58;14.10;16.60
84389;DHT22;74589;48.846;2.382;2023-12-22T04:44:27;14.00;17.80
84389;DHT22;74589;48.846;2.382;2023-12-22T04:46:52;13.80;19.00
84389;DHT22;74589;48.846;2.382;2023-12-22T04:49:18;13.80;19.60
84389;DHT22;74589;48.846;2.382;2023-12-22T04:51:44;13.70;20.20
84389;DHT22;74589;48.846;2.382;2023-12-22T04:54:09;13.70;21.20
84389;DHT22;74589;48.846;2.382;2023-12-22T04:56:35;13.60;21.70
84389;DHT22;74589;48.846;2.382;2023-12-22T04:59:01;13.60;21.30
84389;DHT22;74589;48.846;2.382;2023-12-22T05:01:26;13.60;21.40
84389;DHT22;74589;48.846;2.382;2023-12-22T05:03:52;13.60;21.30
84389;DHT22;74589;48.846;2.382;2023-12-22T05:06:19;13.60;20.60
84389;DHT22;74589;48.846;2.382;2023-12-22T05:08:45;13.60;20.70
84389;DHT22;74589;48.846;2.382;2023-12-22T05:11:10;13.70;19.70
84389;DHT22;74589;48.846;2.382;2023-12-22T05:13:36;13.70;20.00
84389;DHT22;74589;48.846;2.382;2023-12-22T05:16:02;13.60;20.00
84389;DHT22;74589;48.846;2.382;2023-12-22T05:18:29;13.60;20.30
84389;DHT22;74589;48.846;2.382;2023-12-22T05:20:55;13.70;20.00
84389;DHT22;74589;48.846;2.382;2023-12-22T05:23:21;13.80;20.00
84389;DHT22;74589;48.846;2.382;2023-12-22T05:25:47;13.70;21.30
84389;DHT22;74589;48.846;2.382;2023-12-22T05:28:13;13.60;22.60
84389;DHT22;74589;48.846;2.382;2023-12-22T05:30:38;13.40;23.90
84389;DHT22;74589;48.846;2.382;2023-12-22T05:33:04;13.40;23.70
84389;DHT22;74589;48.846;2.382;2023-12-22T05:35:29;13.40;24.20
84389;DHT22;74589;48.846;2.382;2023-12-22T05:37:55;13.50;23.00
84389;DHT22;74589;48.846;2.382;2023-12-22T05:40:21;13.50;22.80
84389;DHT22;74589;48.846;2.382;2023-12-22T05:42:46;13.50;21.70
84389;DHT22;74589;48.846;2.382;2023-12-22T05:45:13;13.40;22.10
84389;DHT22;74589;48.846;2.382;2023-12-22T05:47:39;13.50;21.50
84389;DHT22;74589;48.846;2.382;2023-12-22T05:50:05;13.40;22.00
84389;DHT22;74589;48.846;2.382;2023-12-22T05:52:31;13.50;21.60
84389;DHT22;74589;48.846;2.382;2023-12-22T05:54:56;13.50;22.50
84389;DHT22;74589;48.846;2.382;2023-12-22T05:57:22;13.50;21.50
84389;DHT22;74589;48.846;2.382;2023-12-22T05:59:50;13.50;22.00
84389;DHT22;74589;48.846;2.382;2023-12-22T06:02:16;13.50;22.30
84389;DHT22;74589;48.846;2.382;2023-12-22T06:04:41;13.40;22.90
84389;DHT22;74589;48.846;2.382;2023-12-22T06:07:07;13.40;24.00
84389;DHT22;74589;48.846;2.382;2023-12-22T06:09:32;13.50;22.40
84389;DHT22;74589;48.846;2.382;2023-12-22T06:11:58;13.50;22.00
84389;DHT22;74589;48.846;2.382;2023-12-22T06:14:24;13.50;22.70
84389;DHT22;74589;48.846;2.382;2023-12-22T06:16:49;13.40;23.60
84389;DHT22;74589;48.846;2.382;2023-12-22T06:19:16;13.50;22.70
84389;DHT22;74589;48.846;2.382;2023-12-22T06:21:42;13.50;23.00
84389;DHT22;74589;48.846;2.382;2023-12-22T06:24:07;13.50;22.80
84389;DHT22;74589;48.846;2.382;2023-12-22T06:26:34;13.50;22.50
84389;DHT22;74589;48.846;2.382;2023-12-22T06:28:59;13.50;23.30
84389;DHT22;74589;48.846;2.382;2023-12-22T06:31:25;13.70;21.60
84389;DHT22;74589;48.846;2.382;2023-12-22T06:33:51;13.60;22.10
84389;DHT22;74589;48.846;2.382;2023-12-22T06:36:23;13.60;21.90
84389;DHT22;74589;48.846;2.382;2023-12-22T06:38:52;13.60;21.80
84389;DHT22;74589;48.846;2.382;2023-12-22T06:41:28;13.60;21.90
84389;DHT22;74589;48.846;2.382;2023-12-22T06:43:58;13.50;23.00
84389;DHT22;74589;48.846;2.382;2023-12-22T06:46:26;13.60;21.80
84389;DHT22;74589;48.846;2.382;2023-12-22T06:48:56;13.40;23.30
84389;DHT22;74589;48.846;2.382;2023-12-22T06:53:49;13.50;22.70
84389;DHT22;74589;48.846;2.382;2023-12-22T06:56:19;13.50;23.00
84389;DHT22;74589;48.846;2.382;2023-12-22T06:58:46;13.60;22.20
84389;DHT22;74589;48.846;2.382;2023-12-22T07:01:22;13.60;22.10
84389;DHT22;74589;48.846;2.382;2023-12-22T07:03:48;13.60;22.00
84389;DHT22;74589;48.846;2.382;2023-12-22T07:06:15;13.60;21.70
84389;DHT22;74589;48.846;2.382;2023-12-22T07:08:41;13.60;21.50
84389;DHT22;74589;48.846;2.382;2023-12-22T07:11:10;13.50;22.40
84389;DHT22;74589;48.846;2.382;2023-12-22T07:13:36;13.50;22.10
84389;DHT22;74589;48.846;2.382;2023-12-22T07:16:02;13.60;21.90
84389;DHT22;74589;48.846;2.382;2023-12-22T07:18:28;13.50;22.90
84389;DHT22;74589;48.846;2.382;2023-12-22T07:20:57;13.50;23.10
84389;DHT22;74589;48.846;2.382;2023-12-22T07:23:24;13.50;23.10
84389;DHT22;74589;48.846;2.382;2023-12-22T07:25:49;13.60;22.60
84389;DHT22;74589;48.846;2.382;2023-12-22T07:28:15;13.60;23.40
84389;DHT22;74589;48.846;2.382;2023-12-22T07:30:41;13.50;24.20
84389;DHT22;74589;48.846;2.382;2023-12-22T07:33:07;13.40;24.50
84389;DHT22;74589;48.846;2.382;2023-12-22T07:35:33;13.50;23.90
84389;DHT22;74589;48.846;2.382;2023-12-22T07:37:59;13.40;25.10
84389;DHT22;74589;48.846;2.382;2023-12-22T07:40:25;13.50;24.40
84389;DHT22;74589;48.846;2.382;2023-12-22T07:42:51;13.50;24.20
84389;DHT22;74589;48.846;2.382;2023-12-22T07:45:16;13.50;23.30
84389;DHT22;74589;48.846;2.382;2023-12-22T07:47:42;13.40;24.30
84389;DHT22;74589;48.846;2.382;2023-12-22T07:50:08;13.50;23.90
84389;DHT22;74589;48.846;2.382;2023-12-22T07:52:37;13.60;23.00
84389;DHT22;74589;48.846;2.382;2023-12-22T07:55:08;13.50;23.40
84389;DHT22;74589;48.846;2.382;2023-12-22T07:57:37;13.60;23.40
84389;DHT22;74589;48.846;2.382;2023-12-22T08:00:04;13.70;22.20
84389;DHT22;74589;48.846;2.382;2023-12-22T08:02:30;13.70;22.40
84389;DHT22;74589;48.846;2.382;2023-12-22T08:04:56;13.70;22.40
84389;DHT22;74589;48.846;2.382;2023-12-22T08:07:22;13.70;22.00
84389;DHT22;74589;48.846;2.382;2023-12-22T08:09:48;13.70;22.40
84389;DHT22;74589;48.846;2.382;2023-12-22T08:12:13;13.70;22.80
84389;DHT22;74589;48.846;2.382;2023-12-22T08:14:39;13.60;23.70
84389;DHT22;74589;48.846;2.382;2023-12-22T08:17:04;13.50;24.60
84389;DHT22;74589;48.846;2.382;2023-12-22T08:19:30;13.60;24.80
84389;DHT22;74589;48.846;2.382;2023-12-22T08:21:56;13.60;25.30
84389;DHT22;74589;48.846;2.382;2023-12-22T08:24:22;13.60;26.10
84389;DHT22;74589;48.846;2.382;2023-12-22T08:26:47;13.60;26.00
84389;DHT22;74589;48.846;2.382;2023-12-22T08:29:13;13.60;26.70
84389;DHT22;74589;48.846;2.382;2023-12-22T08:31:39;13.60;26.80
84389;DHT22;74589;48.846;2.382;2023-12-22T08:34:05;13.60;26.40
84389;DHT22;74589;48.846;2.382;2023-12-22T08:36:31;13.60;26.60
84389;DHT22;74589;48.846;2.382;2023-12-22T08:38:57;13.60;26.40
84389;DHT22;74589;48.846;2.382;2023-12-22T08:41:22;13.70;25.70
84389;DHT22;74589;48.846;2.382;2023-12-22T08:43:48;13.80;25.10
84389;DHT22;74589;48.846;2.382;2023-12-22T08:46:14;13.80;24.60
84389;DHT22;74589;48.846;2.382;2023-12-22T08:48:40;13.70;25.30
84389;DHT22;74589;48.846;2.382;2023-12-22T08:51:06;13.80;24.80
84389;DHT22;74589;48.846;2.382;2023-12-22T08:53:33;13.80;24.50
84389;DHT22;74589;48.846;2.382;2023-12-22T08:56:02;13.80;24.10
84389;DHT22;74589;48.846;2.382;2023-12-22T08:58:28;13.80;23.40
84389;DHT22;74589;48.846;2.382;2023-12-22T09:00:54;13.80;23.70
84389;DHT22;74589;48.846;2.382;2023-12-22T09:03:20;13.90;22.90
84389;DHT22;74589;48.846;2.382;2023-12-22T09:05:45;14.00;22.20
84389;DHT22;74589;48.846;2.382;2023-12-22T09:08:12;13.90;22.30
84389;DHT22;74589;48.846;2.382;2023-12-22T09:10:38;13.90;22.30
84389;DHT22;74589;48.846;2.382;2023-12-22T09:13:04;13.90;22.10
84389;DHT22;74589;48.846;2.382;2023-12-22T09:15:29;14.00;22.10
84389;DHT22;74589;48.846;2.382;2023-12-22T09:17:55;13.80;21.80
84389;DHT22;74589;48.846;2.382;2023-12-22T09:20:21;14.00;20.70
84389;DHT22;74589;48.846;2.382;2023-12-22T09:22:47;14.00;20.70
84389;DHT22;74589;48.846;2.382;2023-12-22T09:25:13;14.00;20.30
84389;DHT22;74589;48.846;2.382;2023-12-22T09:27:38;14.10;19.50
84389;DHT22;74589;48.846;2.382;2023-12-22T09:30:05;14.30;18.50
84389;DHT22;74589;48.846;2.382;2023-12-22T09:32:32;14.40;17.90
84389;DHT22;74589;48.846;2.382;2023-12-22T09:34:58;14.40;17.90
84389;DHT22;74589;48.846;2.382;2023-12-22T09:37:25;14.40;17.10
84389;DHT22;74589;48.846;2.382;2023-12-22T09:39:51;14.40;17.30
84389;DHT22;74589;48.846;2.382;2023-12-22T09:42:17;14.40;17.70
84389;DHT22;74589;48.846;2.382;2023-12-22T09:44:43;14.40;17.60
84389;DHT22;74589;48.846;2.382;2023-12-22T09:47:09;14.50;17.40
84389;DHT22;74589;48.846;2.382;2023-12-22T09:49:37;14.40;18.90
84389;DHT22;74589;48.846;2.382;2023-12-22T09:52:04;14.40;18.30
84389;DHT22;74589;48.846;2.382;2023-12-22T09:54:32;14.40;18.50
84389;DHT22;74589;48.846;2.382;2023-12-22T09:56:59;14.40;18.50
84389;DHT22;74589;48.846;2.382;2023-12-22T09:59:27;14.30;18.20
84389;DHT22;74589;48.846;2.382;2023-12-22T10:01:55;14.40;18.80
84389;DHT22;74589;48.846;2.382;2023-12-22T10:04:21;14.40;18.30
84389;DHT22;74589;48.846;2.382;2023-12-22T10:06:48;14.50;17.70
84389;DHT22;74589;48.846;2.382;2023-12-22T10:09:15;14.40;18.40
84389;DHT22;74589;48.846;2.382;2023-12-22T10:11:43;14.40;18.20
84389;DHT22;74589;48.846;2.382;2023-12-22T10:14:09;14.30;17.80
84389;DHT22;74589;48.846;2.382;2023-12-22T10:16:36;14.30;18.00
84389;DHT22;74589;48.846;2.382;2023-12-22T10:19:03;14.30;17.70
84389;DHT22;74589;48.846;2.382;2023-12-22T10:21:29;14.30;17.10
84389;DHT22;74589;48.846;2.382;2023-12-22T10:23:56;14.40;17.10
84389;DHT22;74589;48.846;2.382;2023-12-22T10:26:22;14.30;16.70
84389;DHT22;74589;48.846;2.382;2023-12-22T10:28:48;14.30;17.60
84389;DHT22;74589;48.846;2.382;2023-12-22T10:31:18;14.40;16.50
84389;DHT22;74589;48.846;2.382;2023-12-22T10:33:43;14.40;17.10
84389;DHT22;74589;48.846;2.382;2023-12-22T10:36:10;14.50;16.90
84389;DHT22;74589;48.846;2.382;2023-12-22T10:38:35;14.50;16.60
84389;DHT22;74589;48.846;2.382;2023-12-22T10:41:05;14.70;15.50
84389;DHT22;74589;48.846;2.382;2023-12-22T10:43:39;14.70;15.20
84389;DHT22;74589;48.846;2.382;2023-12-22T10:46:06;14.70;15.30
84389;DHT22;74589;48.846;2.382;2023-12-22T10:48:33;14.70;15.50
84389;DHT22;74589;48.846;2.382;2023-12-22T10:50:59;14.70;16.20
84389;DHT22;74589;48.846;2.382;2023-12-22T10:53:25;14.70;16.30
84389;DHT22;74589;48.846;2.382;2023-12-22T10:55:51;14.60;17.20
84389;DHT22;74589;48.846;2.382;2023-12-22T10:58:17;14.40;18.80
84389;DHT22;74589;48.846;2.382;2023-12-22T11:00:45;14.30;20.00
84389;DHT22;74589;48.846;2.382;2023-12-22T11:03:14;14.30;20.40
84389;DHT22;74589;48.846;2.382;2023-12-22T11:05:45;14.20;21.50
84389;DHT22;74589;48.846;2.382;2023-12-22T11:08:12;14.10;22.60
84389;DHT22;74589;48.846;2.382;2023-12-22T11:10:42;14.00;22.80
84389;DHT22;74589;48.846;2.382;2023-12-22T11:13:12;14.00;22.70
84389;DHT22;74589;48.846;2.382;2023-12-22T11:15:39;14.00;22.20
84389;DHT22;74589;48.846;2.382;2023-12-22T11:18:06;14.00;23.00
84389;DHT22;74589;48.846;2.382;2023-12-22T11:20:33;14.00;23.10
84389;DHT22;74589;48.846;2.382;2023-12-22T11:23:00;14.00;23.40
84389;DHT22;74589;48.846;2.382;2023-12-22T11:25:28;14.00;23.20
84389;DHT22;74589;48.846;2.382;2023-12-22T11:27:55;14.00;22.40
84389;DHT22;74589;48.846;2.382;2023-12-22T11:30:22;14.00;22.00
84389;DHT22;74589;48.846;2.382;2023-12-22T11:32:49;13.80;23.20
84389;DHT22;74589;48.846;2.382;2023-12-22T11:35:16;13.80;23.40
84389;DHT22;74589;48.846;2.382;2023-12-22T11:37:42;13.70;24.60
84389;DHT22;74589;48.846;2.382;2023-12-22T11:40:09;13.80;23.50
84389;DHT22;74589;48.846;2.382;2023-12-22T11:42:41;13.80;24.30
84389;DHT22;74589;48.846;2.382;2023-12-22T11:45:11;13.70;24.10
84389;DHT22;74589;48.846;2.382;2023-12-22T11:47:38;13.80;24.10
84389;DHT22;74589;48.846;2.382;2023-12-22T11:50:09;13.80;23.10
84389;DHT22;74589;48.846;2.382;2023-12-22T11:52:35;13.70;24.50
84389;DHT22;74589;48.846;2.382;2023-12-22T11:55:01;13.80;24.10
84389;DHT22;74589;48.846;2.382;2023-12-22T11:59:55;13.90;22.10
84389;DHT22;74589;48.846;2.382;2023-12-22T12:02:21;14.10;19.50
84389;DHT22;74589;48.846;2.382;2023-12-22T12:04:53;14.10;19.10
84389;DHT22;74589;48.846;2.382;2023-12-22T12:07:38;14.00;19.10
84389;DHT22;74589;48.846;2.382;2023-12-22T12:10:08;14.00;19.10
84389;DHT22;74589;48.846;2.382;2023-12-22T12:12:34;13.90;18.80
84389;DHT22;74589;48.846;2.382;2023-12-22T12:15:07;13.80;19.40
84389;DHT22;74589;48.846;2.382;2023-12-22T12:17:37;13.90;19.40
84389;DHT22;74589;48.846;2.382;2023-12-22T12:20:05;13.80;20.20
84389;DHT22;74589;48.846;2.382;2023-12-22T12:22:31;13.70;21.10
84389;DHT22;74589;48.846;2.382;2023-12-22T12:24:57;13.80;19.90
84389;DHT22;74589;48.846;2.382;2023-12-22T12:27:22;13.80;19.90
84389;DHT22;74589;48.846;2.382;2023-12-22T12:29:48;13.90;18.80
84389;DHT22;74589;48.846;2.382;2023-12-22T12:32:15;13.80;18.40
84389;DHT22;74589;48.846;2.382;2023-12-22T12:34:43;13.80;18.50
84389;DHT22;74589;48.846;2.382;2023-12-22T12:37:09;13.90;16.80
84389;DHT22;74589;48.846;2.382;2023-12-22T12:39:35;14.00;14.80
84389;DHT22;74589;48.846;2.382;2023-12-22T12:42:02;13.80;14.90
84389;DHT22;74589;48.846;2.382;2023-12-22T12:44:30;13.90;15.00
84389;DHT22;74589;48.846;2.382;2023-12-22T12:46:59;13.90;14.80
84389;DHT22;74589;48.846;2.382;2023-12-22T12:49:25;13.80;14.80
84389;DHT22;74589;48.846;2.382;2023-12-22T12:51:54;13.90;14.60
84389;DHT22;74589;48.846;2.382;2023-12-22T12:54:20;13.90;15.00
84389;DHT22;74589;48.846;2.382;2023-12-22T12:56:46;13.90;14.80
84389;DHT22;74589;48.846;2.382;2023-12-22T12:59:17;14.00;14.20
84389;DHT22;74589;48.846;2.382;2023-12-22T13:01:47;13.90;14.30
84389;DHT22;74589;48.846;2.382;2023-12-22T13:04:14;13.90;14.70
84389;DHT22;74589;48.846;2.382;2023-12-22T13:06:49;14.00;14.70
84389;DHT22;74589;48.846;2.382;2023-12-22T13:09:15;14.00;13.00
84389;DHT22;74589;48.846;2.382;2023-12-22T13:11:42;14.00;13.00
84389;DHT22;74589;48.846;2.382;2023-12-22T13:14:11;14.10;13.10
84389;DHT22;74589;48.846;2.382;2023-12-22T13:16:39;14.10;12.50
84389;DHT22;74589;48.846;2.382;2023-12-22T13:19:05;14.10;12.00
84389;DHT22;74589;48.846;2.382;2023-12-22T13:21:31;14.10;11.60
84389;DHT22;74589;48.846;2.382;2023-12-22T13:24:16;14.10;11.50
84389;DHT22;74589;48.846;2.382;2023-12-22T13:26:43;14.10;11.10
84389;DHT22;74589;48.846;2.382;2023-12-22T13:29:10;14.10;11.00
84389;DHT22;74589;48.846;2.382;2023-12-22T13:31:42;14.10;10.90
84389;DHT22;74589;48.846;2.382;2023-12-22T13:34:11;14.20;10.40
84389;DHT22;74589;48.846;2.382;2023-12-22T13:36:38;14.20;10.40
84389;DHT22;74589;48.846;2.382;2023-12-22T13:39:05;14.20;9.90
84389;DHT22;74589;48.846;2.382;2023-12-22T13:41:35;14.20;9.70
84389;DHT22;74589;48.846;2.382;2023-12-22T13:44:06;14.20;9.20
84389;DHT22;74589;48.846;2.382;2023-12-22T13:46:32;14.30;9.20
84389;DHT22;74589;48.846;2.382;2023-12-22T13:48:58;14.20;9.20
84389;DHT22;74589;48.846;2.382;2023-12-22T13:51:24;14.10;9.00
84389;DHT22;74589;48.846;2.382;2023-12-22T13:53:50;14.20;9.00
84389;DHT22;74589;48.846;2.382;2023-12-22T13:56:16;14.20;8.90
84389;DHT22;74589;48.846;2.382;2023-12-22T13:58:45;14.20;9.70
84389;DHT22;74589;48.846;2.382;2023-12-22T14:01:15;14.10;9.30
84389;DHT22;74589;48.846;2.382;2023-12-22T14:03:42;14.10;9.50
84389;DHT22;74589;48.846;2.382;2023-12-22T14:06:08;14.10;9.30
84389;DHT22;74589;48.846;2.382;2023-12-22T14:08:35;14.10;9.00
84389;DHT22;74589;48.846;2.382;2023-12-22T14:11:01;14.20;8.10
84389;DHT22;74589;48.846;2.382;2023-12-22T14:13:26;14.10;8.80
84389;DHT22;74589;48.846;2.382;2023-12-22T14:15:52;14.10;8.70
84389;DHT22;74589;48.846;2.382;2023-12-22T14:18:18;14.10;8.80
84389;DHT22;74589;48.846;2.382;2023-12-22T14:20:44;14.10;8.40
84389;DHT22;74589;48.846;2.382;2023-12-22T14:23:11;14.10;8.40
84389;DHT22;74589;48.846;2.382;2023-12-22T14:25:46;14.00;8.60
84389;DHT22;74589;48.846;2.382;2023-12-22T14:28:13;13.90;9.20
84389;DHT22;74589;48.846;2.382;2023-12-22T14:30:38;14.00;8.90
84389;DHT22;74589;48.846;2.382;2023-12-22T14:33:04;14.00;8.70
84389;DHT22;74589;48.846;2.382;2023-12-22T14:35:30;14.00;9.00
84389;DHT22;74589;48.846;2.382;2023-12-22T14:37:55;14.00;8.60
84389;DHT22;74589;48.846;2.382;2023-12-22T14:40:21;14.00;8.70
84389;DHT22;74589;48.846;2.382;2023-12-22T14:42:46;14.00;9.30
84389;DHT22;74589;48.846;2.382;2023-12-22T14:45:12;14.00;8.90
84389;DHT22;74589;48.846;2.382;2023-12-22T14:47:38;14.00;9.60
84389;DHT22;74589;48.846;2.382;2023-12-22T14:52:40;13.90;10.30
84389;DHT22;74589;48.846;2.382;2023-12-22T14:55:05;13.90;10.40
84389;DHT22;74589;48.846;2.382;2023-12-22T14:57:31;13.90;10.80
84389;DHT22;74589;48.846;2.382;2023-12-22T14:59:59;13.80;11.30
84389;DHT22;74589;48.846;2.382;2023-12-22T15:02:24;13.80;11.30
84389;DHT22;74589;48.846;2.382;2023-12-22T15:04:50;13.90;10.80
84389;DHT22;74589;48.846;2.382;2023-12-22T15:07:16;13.80;10.90
84389;DHT22;74589;48.846;2.382;2023-12-22T15:09:43;13.70;11.20
84389;DHT22;74589;48.846;2.382;2023-12-22T15:12:08;13.70;11.20
84389;DHT22;74589;48.846;2.382;2023-12-22T15:14:34;13.60;11.60
84389;DHT22;74589;48.846;2.382;2023-12-22T15:17:00;13.70;11.50
84389;DHT22;74589;48.846;2.382;2023-12-22T15:19:25;13.70;11.10
84389;DHT22;74589;48.846;2.382;2023-12-22T15:21:52;13.60;11.10
84389;DHT22;74589;48.846;2.382;2023-12-22T15:24:17;13.60;11.40
84389;DHT22;74589;48.846;2.382;2023-12-22T15:26:43;13.50;11.90
84389;DHT22;74589;48.846;2.382;2023-12-22T15:29:09;13.70;11.30
84389;DHT22;74589;48.846;2.382;2023-12-22T15:31:35;13.50;11.70
84389;DHT22;74589;48.846;2.382;2023-12-22T15:34:00;13.60;11.50
84389;DHT22;74589;48.846;2.382;2023-12-22T15:36:26;13.60;11.50
84389;DHT22;74589;48.846;2.382;2023-12-22T15:38:53;13.50;12.00